MDW weather

Chicago Midway International Airport
Chicago, Illinois, United States

Public forecast

Using degrees Fahrenheit for public forecast. Weather courtesy of forecast.io.

METAR (pilot weather report)

Retrieved 2017/06/27 01:53 UTC (1 hour ago):

KMDW 270153Z 31013G21KT 10SM FEW085 18/06 A3006 RMK AO2 SLP173 T01780061

TAF (pilot weather forecast)

Forecast is more than 12 hours old.

Retrieved 2017/06/26 00:42 UTC (1 day ago):

TAF KMDW 262340Z 2700/2724 33014G21KT P6SM SCT050 BKN080 FM270100 33009KT P6SM SCT080 FM270400 29006KT P6SM FEW250 FM271700 26009KT P6SM FEW050 SCT250